createdAt,value
2019-03-26T00:02:57.764Z,79080.80
2019-03-26T00:08:15.735Z,79066.81
2019-03-26T00:13:37.238Z,79074.81
2019-03-26T00:18:51.697Z,79078.80
2019-03-26T00:24:01.154Z,79072.81
2019-03-26T00:29:19.252Z,79054.83
2019-03-26T00:35:01.439Z,79048.83
2019-03-26T00:40:15.440Z,79052.83
2019-03-26T00:45:29.346Z,79053.83
2019-03-26T00:50:42.963Z,79054.83
2019-03-26T00:56:02.660Z,79064.81
2019-03-26T01:01:15.661Z,79086.80
2019-03-26T01:06:29.914Z,79071.81
2019-03-26T01:11:50.135Z,79069.81
2019-03-26T01:17:07.138Z,79097.78
2019-03-26T01:22:45.114Z,79110.77
2019-03-26T01:28:00.952Z,79116.77
2019-03-26T01:33:10.336Z,79113.77
2019-03-26T01:38:22.556Z,79111.77
2019-03-26T01:43:38.419Z,79096.78
2019-03-26T01:48:57.408Z,79090.80
2019-03-26T01:54:11.671Z,79082.80
2019-03-26T01:59:24.487Z,79075.81
2019-03-26T02:04:40.450Z,79060.82
2019-03-26T02:09:54.016Z,79058.83
2019-03-26T02:15:07.573Z,79058.83
2019-03-26T02:20:19.057Z,79062.82
2019-03-26T02:25:33.658Z,79062.82
2019-03-26T02:30:49.194Z,79058.83
2019-03-26T02:36:17.118Z,79060.82
2019-03-26T02:41:32.617Z,79060.82
2019-03-26T02:46:52.113Z,79052.83
2019-03-26T02:52:05.541Z,79042.84
2019-03-26T02:57:19.114Z,79042.84
2019-03-26T03:02:35.534Z,79041.84
2019-03-26T03:07:49.252Z,79049.83
2019-03-26T03:13:09.041Z,79047.84
2019-03-26T03:18:20.587Z,79050.83
2019-03-26T03:23:30.272Z,79039.84
2019-03-26T03:28:42.447Z,79042.84
2019-03-26T03:33:51.465Z,79076.80
2019-03-26T03:39:08.713Z,79081.80
2019-03-26T03:44:24.830Z,79077.80
2019-03-26T03:49:50.881Z,79092.79
2019-03-26T03:55:21.868Z,79101.78
2019-03-26T04:00:49.059Z,79100.78
2019-03-26T04:06:08.912Z,79126.75
2019-03-26T04:11:13.364Z,79144.73
2019-03-26T04:16:43.991Z,79158.72
2019-03-26T04:21:57.429Z,79159.72
2019-03-26T04:27:17.358Z,79149.73
2019-03-26T04:32:32.161Z,79128.75
2019-03-26T04:38:06.515Z,79112.77
2019-03-26T04:43:22.467Z,79110.77
2019-03-26T04:48:37.073Z,79105.77
2019-03-26T04:53:57.314Z,79108.77
2019-03-26T04:59:13.150Z,79116.77
2019-03-26T05:04:23.974Z,79138.74
2019-03-26T05:09:43.043Z,79140.73
2019-03-26T05:15:04.452Z,79143.73
2019-03-26T05:20:15.744Z,79147.73
2019-03-26T05:25:32.013Z,79146.73
2019-03-26T05:30:55.183Z,79144.73
2019-03-26T05:36:06.563Z,79149.73
2019-03-26T05:41:22.185Z,79142.73
2019-03-26T05:46:41.730Z,79142.73
2019-03-26T05:52:01.935Z,79139.74
2019-03-26T05:57:09.272Z,79142.73
2019-03-26T06:02:18.762Z,79132.75
2019-03-26T06:07:36.234Z,79132.75
2019-03-26T06:12:56.261Z,79123.76
2019-03-26T06:18:14.314Z,79115.77
2019-03-26T06:23:24.168Z,79120.77
2019-03-26T06:28:47.076Z,79110.77
2019-03-26T06:34:05.538Z,79097.78
2019-03-26T06:39:29.003Z,79103.78
2019-03-26T06:44:45.395Z,79100.78
2019-03-26T06:50:06.921Z,79073.81
2019-03-26T06:55:23.331Z,79062.82
2019-03-26T07:00:37.247Z,79049.83
2019-03-26T07:05:53.156Z,79042.84
2019-03-26T07:11:12.762Z,79047.84
2019-03-26T07:16:28.450Z,79024.86
2019-03-26T07:21:50.177Z,79014.87
2019-03-26T07:27:22.918Z,78998.89
2019-03-26T07:32:57.366Z,79002.88
2019-03-26T07:38:07.001Z,79022.86
2019-03-26T07:43:17.343Z,79033.84
2019-03-26T07:48:52.646Z,79037.84
2019-03-26T07:54:05.576Z,79017.86
2019-03-26T07:59:21.050Z,78978.91
2019-03-26T08:04:35.456Z,78926.96
2019-03-26T08:09:48.450Z,78874.02
2019-03-26T08:15:04.188Z,78814.08
2019-03-26T08:20:17.280Z,78770.13
2019-03-26T08:25:33.852Z,78732.17
2019-03-26T08:30:46.059Z,78737.17
2019-03-26T08:36:00.034Z,78727.17
2019-03-26T08:41:22.947Z,78738.16
2019-03-26T08:46:38.505Z,78689.22
2019-03-26T08:51:53.396Z,78684.23
2019-03-26T08:57:09.216Z,78605.31
2019-03-26T09:02:21.294Z,78577.34
2019-03-26T09:07:56.624Z,78577.34
2019-03-26T09:13:09.670Z,78700.21
2019-03-26T09:18:25.599Z,78769.13
2019-03-26T09:24:03.822Z,78785.11
2019-03-26T09:29:13.569Z,78795.11
2019-03-26T09:34:31.469Z,78833.06
2019-03-26T09:40:06.847Z,78860.03
2019-03-26T09:45:24.788Z,78799.10
2019-03-26T09:51:02.112Z,78720.19
2019-03-26T09:56:28.237Z,78671.24
2019-03-26T10:01:36.038Z,78669.24
2019-03-26T10:06:48.146Z,78685.23
2019-03-26T10:12:01.281Z,78709.20
2019-03-26T10:17:08.904Z,78673.23
2019-03-26T10:22:39.901Z,78692.22
2019-03-26T10:27:57.211Z,78697.21
2019-03-26T10:33:27.392Z,78691.22
2019-03-26T10:38:46.154Z,78697.21
2019-03-26T10:44:03.676Z,78691.22
2019-03-26T10:49:21.093Z,78705.20
2019-03-26T10:54:32.288Z,78677.23
2019-03-26T10:59:48.102Z,78587.34
2019-03-26T11:05:00.614Z,78455.48
2019-03-26T11:10:13.029Z,78396.56
2019-03-26T11:15:26.059Z,78364.59
2019-03-26T11:21:01.744Z,78438.51
2019-03-26T11:26:10.302Z,78465.48
2019-03-26T11:31:26.258Z,78445.50
2019-03-26T11:36:41.640Z,78451.49
2019-03-26T11:41:57.652Z,78486.45
2019-03-26T11:47:12.086Z,78536.39
2019-03-26T11:52:32.801Z,78577.34
2019-03-26T11:57:51.196Z,78569.36
2019-03-26T12:03:05.209Z,78556.38
2019-03-26T12:08:25.436Z,78603.32
2019-03-26T12:13:37.618Z,78617.30
2019-03-26T12:18:53.059Z,78645.27
2019-03-26T12:24:14.148Z,78640.27
2019-03-26T12:29:32.079Z,78615.30
2019-03-26T12:34:52.588Z,78565.36
2019-03-26T12:40:10.324Z,78571.36
2019-03-26T12:45:34.922Z,78543.39
2019-03-26T12:50:46.364Z,78545.38
2019-03-26T12:56:03.431Z,78555.38
2019-03-26T13:01:14.173Z,78527.41
2019-03-26T13:06:27.355Z,78476.47
2019-03-26T13:11:46.081Z,78479.46
2019-03-26T13:17:07.011Z,78473.47
2019-03-26T13:22:42.627Z,78431.52
2019-03-26T13:28:01.566Z,78444.50
2019-03-26T13:33:11.569Z,78448.50
2019-03-26T13:38:28.575Z,78426.52
2019-03-26T13:43:39.038Z,78444.50
2019-03-26T13:48:50.878Z,78482.45
2019-03-26T13:54:04.175Z,78483.45
2019-03-26T13:59:19.967Z,78437.51
2019-03-26T14:04:31.059Z,78411.55
2019-03-26T14:09:52.268Z,78354.61
2019-03-26T14:15:08.154Z,78297.68
2019-03-26T14:20:21.106Z,78299.67
2019-03-26T14:25:37.010Z,78354.61
2019-03-26T14:30:49.154Z,78406.55
2019-03-26T14:35:57.034Z,78421.53
2019-03-26T14:41:10.247Z,78434.52
2019-03-26T14:46:22.988Z,78433.52
2019-03-26T14:51:37.279Z,78434.52
2019-03-26T14:56:47.947Z,78411.55
2019-03-26T15:02:20.786Z,78392.56
2019-03-26T15:07:32.645Z,78391.56
2019-03-26T15:12:47.894Z,78381.58
2019-03-26T15:18:05.859Z,78417.53
2019-03-26T15:23:18.204Z,78455.48
2019-03-26T15:28:33.348Z,78461.48
2019-03-26T15:33:53.374Z,78461.48
2019-03-26T15:39:12.912Z,78459.48
2019-03-26T15:44:56.442Z,78442.50
2019-03-26T15:50:09.473Z,78428.52
2019-03-26T15:55:23.492Z,78421.53
2019-03-26T16:00:37.661Z,78403.55
2019-03-26T16:05:48.519Z,78425.52
2019-03-26T16:11:07.784Z,78423.53
2019-03-26T16:16:15.587Z,78427.52
2019-03-26T16:21:25.842Z,78418.53
2019-03-26T16:27:04.514Z,78418.53
2019-03-26T16:32:24.144Z,78435.52
2019-03-26T16:37:43.025Z,78460.48
2019-03-26T16:42:55.848Z,78473.47
2019-03-26T16:48:09.761Z,78480.46
2019-03-26T16:53:24.214Z,78499.44
2019-03-26T16:58:41.986Z,78515.42
2019-03-26T17:03:57.783Z,78531.40
2019-03-26T17:09:11.157Z,78549.38
2019-03-26T17:14:22.992Z,78555.38
2019-03-26T17:19:41.995Z,78560.37
2019-03-26T17:25:17.520Z,78564.36
2019-03-26T17:30:33.437Z,78574.35
2019-03-26T17:35:51.373Z,78574.35
2019-03-26T17:41:05.991Z,78580.34
2019-03-26T17:46:34.933Z,78582.34
2019-03-26T17:51:46.158Z,78592.33
2019-03-26T17:57:00.583Z,78600.32
2019-03-26T18:02:20.015Z,78607.31
2019-03-26T18:07:35.462Z,78622.30
2019-03-26T18:12:57.852Z,78633.28
2019-03-26T18:18:15.691Z,78645.27
2019-03-26T18:23:29.666Z,78653.27
2019-03-26T18:28:38.918Z,78654.26
2019-03-26T18:33:50.801Z,78672.23
2019-03-26T18:39:14.146Z,78687.22
2019-03-26T18:44:30.330Z,78685.23
2019-03-26T18:49:49.828Z,78702.20
2019-03-26T18:55:02.756Z,78715.19
2019-03-26T19:00:18.265Z,78723.18
2019-03-26T19:05:31.597Z,78725.18
2019-03-26T19:10:47.549Z,78730.17
2019-03-26T19:16:27.841Z,78737.17
2019-03-26T19:21:41.379Z,78743.16
2019-03-26T19:26:57.985Z,78744.16
2019-03-26T19:32:13.626Z,78761.14
2019-03-26T19:37:30.344Z,78769.13
2019-03-26T19:42:41.532Z,78768.13
2019-03-26T19:48:02.316Z,78779.13
2019-03-26T19:53:19.499Z,78777.13
2019-03-26T19:58:38.433Z,78805.09
2019-03-26T20:03:50.348Z,78805.09
2019-03-26T20:09:05.076Z,78819.08
2019-03-26T20:14:15.405Z,78828.06
2019-03-26T20:19:25.887Z,78837.06
2019-03-26T20:24:37.375Z,78849.05
2019-03-26T20:29:56.139Z,78850.05
2019-03-26T20:35:11.341Z,78855.04
2019-03-26T20:40:22.023Z,78856.04
2019-03-26T20:45:53.701Z,78857.03
2019-03-26T20:51:14.492Z,78865.03
2019-03-26T20:56:26.984Z,78871.02
2019-03-26T21:01:40.512Z,78877.02
2019-03-26T21:07:01.617Z,78880.02
2019-03-26T21:12:21.644Z,78890.00
2019-03-26T21:17:33.219Z,78891.00
2019-03-26T21:22:49.242Z,78885.01
2019-03-26T21:28:00.546Z,78883.01
2019-03-26T21:33:15.139Z,78891.00
2019-03-26T21:38:29.082Z,78891.00
2019-03-26T21:44:03.592Z,78894.00
2019-03-26T21:49:09.258Z,78893.00
2019-03-26T21:54:24.291Z,78896.00
2019-03-26T21:59:39.257Z,78897.00
2019-03-26T22:04:52.216Z,78905.98
2019-03-26T22:10:11.645Z,78908.98
2019-03-26T22:15:25.518Z,78914.97
2019-03-26T22:20:39.598Z,78934.95
2019-03-26T22:26:10.090Z,78945.94
2019-03-26T22:31:27.652Z,78948.94
2019-03-26T22:36:44.878Z,78948.94
2019-03-26T22:42:15.808Z,78953.94
2019-03-26T22:47:43.011Z,78962.92
2019-03-26T22:52:56.586Z,78968.92
2019-03-26T22:58:08.217Z,78966.92
2019-03-26T23:03:21.304Z,78968.92
2019-03-26T23:08:36.328Z,78972.91
2019-03-26T23:13:54.867Z,78978.91
2019-03-26T23:19:18.849Z,78982.91
2019-03-26T23:24:34.763Z,78994.89
2019-03-26T23:29:45.214Z,79002.88
2019-03-26T23:34:58.242Z,79013.88
2019-03-26T23:40:12.291Z,79020.86
2019-03-26T23:45:26.268Z,79028.86
2019-03-26T23:50:40.475Z,79037.84
2019-03-26T23:55:56.505Z,79025.86
